Lytle, Ohio
Current Conditions -  °F | °C
As of 10:53 AM on Sunday 21 Dec 2014 (Local Time) from KMGY Reporting Station
Haze Haze  
Wind Chill: 22°   Ceiling: Unl
Heat Index: 31°   Visibility: 6mi
Dew Point: 24°   Wind: 10mph
Humidity: 76%   Direction: 120°ESE
Pressure: 30.3"   Gusts: NA
Location:  39.5416°N, 84.0704°W
Report Text: KMGY 211553Z AUTO 12009KT 6SM HZ CLR M01/M04 A3030 RMK AO2 SLP271 T10061044
Loading
Personal Weather Stations






























Interactive Weather Map New forecast layout! Learn more

10-Day Weather Forecast

Advertisements
Track Severe Weather on mobile